createdAt,value
2017-11-01T00:00:05.991Z,20.61
2017-11-01T00:01:05.988Z,20.53
2017-11-01T00:02:05.982Z,20.65
2017-11-01T00:03:05.979Z,20.53
2017-11-01T00:04:05.973Z,20.65
2017-11-01T00:05:05.971Z,20.61
2017-11-01T00:06:05.967Z,20.61
2017-11-01T00:07:05.965Z,20.58
2017-11-01T00:08:05.961Z,20.58
2017-11-01T00:09:05.960Z,20.64
2017-11-01T00:10:05.959Z,20.64
2017-11-01T00:11:05.951Z,20.56
2017-11-01T00:12:05.946Z,20.61
2017-11-01T00:13:05.941Z,20.64
2017-11-01T00:14:05.938Z,20.67
2017-11-01T00:15:05.933Z,20.56
2017-11-01T00:16:05.928Z,20.55
2017-11-01T00:17:05.924Z,20.58
2017-11-01T00:18:05.921Z,20.55
2017-11-01T00:19:05.918Z,20.56
2017-11-01T00:20:05.914Z,20.61
2017-11-01T00:21:05.911Z,20.58
2017-11-01T00:22:05.913Z,20.60
2017-11-01T00:23:05.900Z,20.53
2017-11-01T00:24:05.900Z,20.61
2017-11-01T00:25:05.891Z,20.56
2017-11-01T00:26:05.883Z,20.56
2017-11-01T00:27:05.884Z,20.56
2017-11-01T00:28:05.880Z,20.55
2017-11-01T00:29:05.877Z,20.60
2017-11-01T00:30:05.874Z,20.58
2017-11-01T00:31:05.872Z,20.55
2017-11-01T00:32:05.866Z,20.55
2017-11-01T00:33:05.861Z,20.52
2017-11-01T00:34:05.863Z,20.53
2017-11-01T00:35:05.853Z,20.55
2017-11-01T00:36:05.850Z,20.55
2017-11-01T00:37:05.845Z,20.53
2017-11-01T00:38:05.842Z,20.58
2017-11-01T00:39:05.835Z,20.71
2017-11-01T00:40:05.830Z,20.53
2017-11-01T00:41:05.827Z,20.53
2017-11-01T00:42:05.823Z,20.56
2017-11-01T00:43:05.818Z,20.58
2017-11-01T00:44:05.815Z,20.55
2017-11-01T00:45:05.809Z,20.53
2017-11-01T00:46:05.805Z,20.53
2017-11-01T00:47:05.803Z,20.55
2017-11-01T00:48:05.800Z,20.48
2017-11-01T00:49:05.795Z,20.44
2017-11-01T00:50:05.792Z,20.55
2017-11-01T00:51:05.784Z,20.53
2017-11-01T00:52:05.785Z,20.52
2017-11-01T00:53:05.782Z,20.55
2017-11-01T00:54:05.788Z,20.56
2017-11-01T00:55:05.766Z,20.46
2017-11-01T00:56:05.763Z,20.53
2017-11-01T00:57:05.758Z,20.63
2017-11-01T00:58:05.753Z,20.53
2017-11-01T00:59:05.749Z,20.63
2017-11-01T01:00:05.751Z,20.55
2017-11-01T01:01:05.740Z,20.56
2017-11-01T01:02:05.738Z,20.44
2017-11-01T01:03:05.734Z,20.53
2017-11-01T01:04:05.735Z,20.48
2017-11-01T01:05:05.725Z,20.53
2017-11-01T01:06:05.718Z,20.58
2017-11-01T01:07:05.715Z,20.60
2017-11-01T01:08:05.713Z,20.50
2017-11-01T01:09:05.706Z,20.58
2017-11-01T01:10:05.702Z,20.50
2017-11-01T01:11:05.693Z,20.55
2017-11-01T01:12:05.688Z,20.56
2017-11-01T01:13:05.685Z,20.52
2017-11-01T01:14:05.684Z,20.63
2017-11-01T01:15:05.674Z,20.55
2017-11-01T01:16:05.670Z,20.56
2017-11-01T01:17:05.668Z,20.53
2017-11-01T01:18:05.664Z,20.55
2017-11-01T01:19:05.661Z,20.55
2017-11-01T01:20:05.661Z,20.53
2017-11-01T01:21:05.650Z,20.53
2017-11-01T01:22:05.646Z,20.52
2017-11-01T01:23:05.639Z,20.55
2017-11-01T01:24:05.633Z,20.53
2017-11-01T01:25:05.628Z,20.42
2017-11-01T01:26:05.623Z,20.52
2017-11-01T01:27:05.623Z,20.52
2017-11-01T01:28:05.619Z,20.50
2017-11-01T01:29:05.617Z,20.49
2017-11-01T01:30:05.611Z,20.46
2017-11-01T01:31:05.603Z,20.52
2017-11-01T01:32:05.598Z,20.61
2017-11-01T01:33:05.595Z,20.52
2017-11-01T01:34:05.590Z,20.50
2017-11-01T01:35:05.584Z,20.49
2017-11-01T01:36:05.577Z,20.56
2017-11-01T01:37:05.578Z,20.52
2017-11-01T01:38:05.578Z,20.58
2017-11-01T01:39:05.563Z,20.53
2017-11-01T01:40:05.557Z,20.42
2017-11-01T01:41:05.556Z,20.50
2017-11-01T01:42:05.551Z,20.49
2017-11-01T01:43:05.545Z,20.39
2017-11-01T01:44:05.542Z,20.41
2017-11-01T01:45:05.537Z,20.46
2017-11-01T01:46:05.533Z,20.52
2017-11-01T01:47:05.527Z,20.46
2017-11-01T01:48:05.522Z,20.37
2017-11-01T01:49:05.517Z,20.46
2017-11-01T01:50:05.511Z,20.37
2017-11-01T01:51:05.506Z,20.42
2017-11-01T01:52:05.500Z,20.52
2017-11-01T01:53:05.496Z,20.39
2017-11-01T01:54:05.492Z,20.46
2017-11-01T01:55:05.489Z,20.48
2017-11-01T01:56:05.481Z,20.44
2017-11-01T01:57:05.477Z,20.55
2017-11-01T01:58:05.472Z,20.39
2017-11-01T01:59:05.467Z,20.49
2017-11-01T02:00:05.467Z,20.44
2017-11-01T02:01:05.459Z,20.46
2017-11-01T02:02:05.456Z,20.44
2017-11-01T02:03:05.449Z,20.37
2017-11-01T02:04:05.447Z,20.39
2017-11-01T02:05:05.440Z,20.48
2017-11-01T02:06:05.436Z,20.49
2017-11-01T02:07:05.428Z,20.41
2017-11-01T02:08:05.423Z,20.41
2017-11-01T02:09:05.417Z,20.41
2017-11-01T02:10:05.413Z,20.44
2017-11-01T02:11:05.408Z,20.39
2017-11-01T02:12:05.404Z,20.42
2017-11-01T02:13:05.399Z,20.48
2017-11-01T02:14:05.395Z,20.41
2017-11-01T02:15:05.391Z,20.44
2017-11-01T02:16:05.385Z,20.39
2017-11-01T02:17:05.382Z,20.41
2017-11-01T02:18:05.380Z,20.42
2017-11-01T02:19:05.376Z,20.41
2017-11-01T02:20:05.366Z,20.42
2017-11-01T02:21:05.362Z,20.39
2017-11-01T02:22:05.358Z,20.48
2017-11-01T02:23:05.345Z,20.36
2017-11-01T02:24:05.344Z,20.33
2017-11-01T02:25:05.340Z,20.34
2017-11-01T02:26:05.339Z,20.46
2017-11-01T02:27:05.329Z,20.44
2017-11-01T02:28:05.327Z,20.48
2017-11-01T02:29:05.322Z,20.41
2017-11-01T02:30:05.321Z,20.33
2017-11-01T02:31:05.312Z,20.36
2017-11-01T02:32:05.309Z,20.32
2017-11-01T02:33:05.305Z,20.36
2017-11-01T02:34:05.300Z,20.36
2017-11-01T02:35:05.295Z,20.44
2017-11-01T02:36:05.292Z,20.41
2017-11-01T02:37:05.288Z,20.39
2017-11-01T02:38:05.279Z,20.36
2017-11-01T02:39:05.272Z,20.39
2017-11-01T02:40:05.266Z,20.33
2017-11-01T02:41:05.263Z,20.37
2017-11-01T02:42:05.258Z,20.33
2017-11-01T02:43:05.253Z,20.37
2017-11-01T02:44:05.247Z,20.44
2017-11-01T02:45:05.243Z,20.39
2017-11-01T02:46:05.237Z,20.36
2017-11-01T02:47:05.252Z,20.36
2017-11-01T02:48:05.232Z,20.42
2017-11-01T02:49:05.226Z,20.34
2017-11-01T02:50:05.221Z,20.33
2017-11-01T02:51:05.215Z,20.33
2017-11-01T02:52:05.215Z,20.34
2017-11-01T02:53:05.210Z,20.33
2017-11-01T02:54:05.207Z,20.37
2017-11-01T02:55:05.192Z,20.37
2017-11-01T02:56:05.189Z,20.34
2017-11-01T02:57:05.184Z,20.39
2017-11-01T02:58:05.180Z,20.39
2017-11-01T02:59:05.174Z,20.34
2017-11-01T03:00:05.169Z,20.37
2017-11-01T03:01:05.164Z,20.39
2017-11-01T03:02:05.161Z,20.41
2017-11-01T03:03:05.155Z,20.39
2017-11-01T03:04:05.152Z,20.41
2017-11-01T03:05:05.147Z,20.33
2017-11-01T03:06:05.145Z,20.33
2017-11-01T03:07:05.140Z,20.37
2017-11-01T03:08:05.131Z,20.32
2017-11-01T03:09:05.131Z,20.34
2017-11-01T03:10:05.124Z,20.42
2017-11-01T03:11:05.114Z,20.39
2017-11-01T03:12:05.110Z,20.37
2017-11-01T03:13:05.109Z,20.41
2017-11-01T03:14:05.102Z,20.34
2017-11-01T03:15:05.096Z,20.37
2017-11-01T03:16:05.089Z,20.30
2017-11-01T03:17:05.087Z,20.29
2017-11-01T03:18:05.085Z,20.37
2017-11-01T03:19:05.086Z,20.32
2017-11-01T03:20:05.074Z,20.29
2017-11-01T03:21:05.069Z,20.29
2017-11-01T03:22:05.064Z,20.25
2017-11-01T03:23:05.060Z,20.39
2017-11-01T03:24:05.053Z,20.33
2017-11-01T03:25:05.051Z,20.39
2017-11-01T03:26:05.046Z,20.36
2017-11-01T03:27:05.041Z,20.32
2017-11-01T03:28:05.034Z,20.34
2017-11-01T03:29:05.032Z,20.39
2017-11-01T03:30:05.026Z,20.41
2017-11-01T03:31:05.025Z,20.39
2017-11-01T03:32:05.016Z,20.37
2017-11-01T03:33:05.010Z,20.44
2017-11-01T03:34:05.008Z,20.39
2017-11-01T03:35:05.000Z,20.42
2017-11-01T03:36:04.996Z,20.41
2017-11-01T03:37:04.991Z,20.39
2017-11-01T03:38:04.988Z,20.29
2017-11-01T03:39:04.981Z,20.41
2017-11-01T03:40:04.975Z,20.39
2017-11-01T03:41:04.971Z,20.36
2017-11-01T03:42:04.969Z,20.32
2017-11-01T03:43:04.963Z,20.41
2017-11-01T03:44:04.965Z,20.39
2017-11-01T03:45:04.955Z,20.44
2017-11-01T03:46:04.955Z,20.41
2017-11-01T03:47:04.946Z,20.41
2017-11-01T03:48:04.941Z,20.37
2017-11-01T03:49:04.936Z,20.37
2017-11-01T03:50:04.932Z,20.42
2017-11-01T03:51:04.923Z,20.33
2017-11-01T03:52:04.919Z,20.42
2017-11-01T03:53:04.914Z,20.42
2017-11-01T03:54:04.910Z,20.34
2017-11-01T03:55:04.903Z,20.39
2017-11-01T03:56:04.900Z,20.41
2017-11-01T03:57:04.895Z,20.39
2017-11-01T03:58:04.891Z,20.41
2017-11-01T03:59:04.886Z,20.39
2017-11-01T04:00:04.883Z,20.42
2017-11-01T04:01:04.877Z,20.32
2017-11-01T04:02:04.881Z,20.39
2017-11-01T04:03:04.869Z,20.41
2017-11-01T04:04:04.864Z,20.44
2017-11-01T04:05:04.860Z,20.29
2017-11-01T04:06:04.855Z,20.39
2017-11-01T04:07:04.846Z,20.34
2017-11-01T04:08:04.842Z,20.29
2017-11-01T04:09:04.838Z,20.32
2017-11-01T04:10:04.834Z,20.36
2017-11-01T04:11:04.827Z,20.29
2017-11-01T04:12:04.823Z,20.29
2017-11-01T04:13:04.818Z,20.39
2017-11-01T04:14:04.818Z,20.41
2017-11-01T04:15:04.815Z,20.39
2017-11-01T04:16:04.807Z,20.30
2017-11-01T04:17:04.803Z,20.39
2017-11-01T04:18:04.798Z,20.39
2017-11-01T04:19:04.792Z,20.39
2017-11-01T04:20:04.788Z,20.37
2017-11-01T04:21:04.784Z,20.29
2017-11-01T04:22:04.780Z,20.29
2017-11-01T04:23:04.772Z,20.36
2017-11-01T04:24:04.773Z,20.33
2017-11-01T04:25:04.762Z,20.39
2017-11-01T04:26:04.758Z,20.37
2017-11-01T04:27:04.753Z,20.32
2017-11-01T04:28:04.749Z,20.34
2017-11-01T04:29:04.743Z,20.30
2017-11-01T04:30:04.739Z,20.37
2017-11-01T04:31:04.737Z,20.36
2017-11-01T04:32:04.732Z,20.30
2017-11-01T04:33:04.732Z,20.27
2017-11-01T04:34:04.724Z,20.36
2017-11-01T04:35:04.722Z,20.29
2017-11-01T04:36:04.712Z,20.42
2017-11-01T04:37:04.707Z,20.36
2017-11-01T04:38:04.703Z,20.42
2017-11-01T04:39:04.699Z,20.41
2017-11-01T04:40:04.703Z,20.37
2017-11-01T04:41:04.690Z,20.33
2017-11-01T04:42:04.687Z,20.37
2017-11-01T04:43:04.678Z,20.39
2017-11-01T04:44:04.674Z,20.36
2017-11-01T04:45:04.671Z,20.34
2017-11-01T04:46:04.667Z,20.39
2017-11-01T04:47:04.659Z,20.42
2017-11-01T04:48:04.655Z,20.37
2017-11-01T04:49:04.651Z,20.41
2017-11-01T04:50:04.645Z,20.39
2017-11-01T04:51:04.639Z,20.29
2017-11-01T04:52:04.637Z,20.42
2017-11-01T04:53:04.631Z,20.36
2017-11-01T04:54:04.629Z,20.39
2017-11-01T04:55:04.622Z,20.29
2017-11-01T04:56:04.623Z,20.29
2017-11-01T04:57:04.616Z,20.32
2017-11-01T04:58:04.611Z,20.33
2017-11-01T04:59:04.606Z,20.37
2017-11-01T05:00:04.608Z,20.36
2017-11-01T05:01:04.597Z,20.33
2017-11-01T05:02:04.595Z,20.34
2017-11-01T05:03:04.585Z,20.39
2017-11-01T05:04:04.579Z,20.29
2017-11-01T05:05:04.577Z,20.39
2017-11-01T05:06:04.576Z,20.41
2017-11-01T05:07:04.569Z,20.41
2017-11-01T05:08:04.564Z,20.55
2017-11-01T05:09:04.563Z,20.58
2017-11-01T05:10:04.560Z,20.52
2017-11-01T05:11:04.559Z,20.50
2017-11-01T05:12:04.556Z,20.55
2017-11-01T05:13:04.555Z,20.63
2017-11-01T05:14:04.552Z,20.67
2017-11-01T05:15:04.555Z,20.63
2017-11-01T05:16:04.548Z,20.70
2017-11-01T05:17:04.548Z,20.75
2017-11-01T05:18:04.550Z,20.70
2017-11-01T05:19:04.542Z,20.75
2017-11-01T05:20:04.545Z,20.83
2017-11-01T05:21:04.548Z,20.79
2017-11-01T05:22:04.537Z,20.83
2017-11-01T05:23:04.538Z,20.85
2017-11-01T05:24:04.538Z,20.90
2017-11-01T05:25:04.535Z,20.90
2017-11-01T05:26:04.533Z,20.93
2017-11-01T05:27:04.533Z,21.07
2017-11-01T05:28:04.532Z,21.03
2017-11-01T05:29:04.532Z,21.07
2017-11-01T05:30:04.532Z,21.07
2017-11-01T05:31:04.529Z,21.11
2017-11-01T05:32:04.529Z,21.11
2017-11-01T05:33:04.529Z,21.14
2017-11-01T05:34:04.528Z,21.22
2017-11-01T05:35:04.525Z,21.23
2017-11-01T05:36:04.524Z,21.29
2017-11-01T05:37:04.522Z,21.35
2017-11-01T05:38:04.522Z,21.35
2017-11-01T05:39:04.526Z,21.34
2017-11-01T05:40:04.520Z,21.38
2017-11-01T05:41:04.524Z,21.41
2017-11-01T05:42:04.528Z,21.44
2017-11-01T05:43:04.520Z,21.48
2017-11-01T05:44:04.522Z,21.40
2017-11-01T05:45:04.520Z,21.51
2017-11-01T05:46:04.518Z,21.40
2017-11-01T05:47:04.518Z,21.43
2017-11-01T05:48:04.518Z,21.50
2017-11-01T05:49:04.518Z,21.45
2017-11-01T05:50:04.523Z,21.44
2017-11-01T05:51:04.518Z,21.47
2017-11-01T05:52:04.519Z,21.47
2017-11-01T05:53:04.520Z,21.51
2017-11-01T05:54:04.520Z,21.48
2017-11-01T05:55:04.518Z,21.45
2017-11-01T05:56:04.522Z,21.51
2017-11-01T05:57:04.521Z,21.50
2017-11-01T05:58:04.516Z,21.50
2017-11-01T05:59:04.516Z,21.56
2017-11-01T06:00:04.515Z,21.53
2017-11-01T06:01:04.517Z,21.45
2017-11-01T06:02:04.515Z,21.50
2017-11-01T06:03:04.514Z,21.47
2017-11-01T06:04:04.515Z,21.48
2017-11-01T06:05:04.517Z,21.53
2017-11-01T06:06:04.514Z,21.53
2017-11-01T06:07:04.522Z,21.51
2017-11-01T06:08:04.524Z,21.51
2017-11-01T06:09:04.516Z,21.53
2017-11-01T06:10:04.517Z,21.51
2017-11-01T06:11:04.515Z,21.51
2017-11-01T06:12:04.516Z,21.48
2017-11-01T06:13:04.515Z,21.50
2017-11-01T06:14:04.516Z,21.47
2017-11-01T06:15:04.512Z,21.44
2017-11-01T06:16:04.512Z,21.47
2017-11-01T06:17:04.512Z,21.47
2017-11-01T06:18:04.513Z,21.48
2017-11-01T06:19:04.513Z,21.51
2017-11-01T06:20:04.511Z,21.53
2017-11-01T06:21:04.511Z,21.51
2017-11-01T06:22:04.514Z,21.47
2017-11-01T06:23:04.513Z,21.45
2017-11-01T06:24:04.515Z,21.50
2017-11-01T06:25:04.513Z,21.51
2017-11-01T06:26:04.514Z,21.51
2017-11-01T06:27:04.513Z,21.45
2017-11-01T06:28:04.513Z,21.50
2017-11-01T06:29:04.515Z,21.50
2017-11-01T06:30:04.513Z,21.45
2017-11-01T06:31:04.511Z,21.50
2017-11-01T06:32:04.509Z,21.56
2017-11-01T06:33:04.515Z,21.53
2017-11-01T06:34:04.510Z,21.44
2017-11-01T06:35:04.511Z,21.50
2017-11-01T06:36:04.508Z,21.44
2017-11-01T06:37:04.509Z,21.44
2017-11-01T06:38:04.509Z,21.45
2017-11-01T06:39:04.511Z,21.50
2017-11-01T06:40:04.512Z,21.55
2017-11-01T06:41:04.510Z,21.50
2017-11-01T06:42:04.511Z,21.44
2017-11-01T06:43:04.516Z,21.44
2017-11-01T06:44:04.513Z,21.44
2017-11-01T06:45:04.509Z,21.51
2017-11-01T06:46:04.508Z,21.41
2017-11-01T06:47:04.507Z,21.55
2017-11-01T06:48:04.508Z,21.48
2017-11-01T06:49:04.506Z,21.43
2017-11-01T06:50:04.507Z,21.55
2017-11-01T06:51:04.507Z,21.48
2017-11-01T06:52:04.506Z,21.56
2017-11-01T06:53:04.504Z,21.48
2017-11-01T06:54:04.506Z,21.50
2017-11-01T06:55:04.508Z,21.44
2017-11-01T06:56:04.507Z,21.44
2017-11-01T06:57:04.506Z,21.48
2017-11-01T06:58:04.509Z,21.48
2017-11-01T06:59:04.507Z,21.48
2017-11-01T07:00:04.506Z,21.55
2017-11-01T07:01:04.511Z,21.43
2017-11-01T07:02:04.504Z,21.47
2017-11-01T07:03:04.503Z,21.43
2017-11-01T07:04:04.501Z,21.48
2017-11-01T07:05:04.502Z,21.44
2017-11-01T07:06:04.505Z,21.47
2017-11-01T07:07:04.500Z,21.43
2017-11-01T07:08:04.501Z,21.40
2017-11-01T07:09:04.500Z,21.43
2017-11-01T07:10:04.497Z,21.45
2017-11-01T07:11:04.506Z,21.41
2017-11-01T07:12:04.500Z,21.45
2017-11-01T07:13:04.505Z,21.43
2017-11-01T07:14:04.500Z,21.41
2017-11-01T07:15:04.500Z,21.40
2017-11-01T07:16:04.499Z,21.40
2017-11-01T07:17:04.499Z,21.43
2017-11-01T07:18:04.499Z,21.45
2017-11-01T07:19:04.493Z,21.43
2017-11-01T07:20:04.488Z,21.38
2017-11-01T07:21:04.497Z,21.47
2017-11-01T07:22:04.497Z,21.47
2017-11-01T07:23:04.494Z,21.44
2017-11-01T07:24:04.496Z,21.38
2017-11-01T07:25:04.491Z,21.43
2017-11-01T07:26:04.497Z,21.50
2017-11-01T07:27:04.501Z,21.55
2017-11-01T07:28:04.496Z,21.44
2017-11-01T07:29:04.489Z,21.48
2017-11-01T07:30:04.494Z,21.48
2017-11-01T07:31:04.497Z,21.47
2017-11-01T07:32:04.493Z,21.41
2017-11-01T07:33:04.493Z,21.47
2017-11-01T07:34:04.494Z,21.50
2017-11-01T07:35:04.489Z,21.53
2017-11-01T07:36:04.486Z,21.53
2017-11-01T07:37:04.487Z,21.59
2017-11-01T07:38:04.480Z,21.62
2017-11-01T07:39:04.488Z,21.53
2017-11-01T07:40:04.486Z,21.59
2017-11-01T07:41:04.489Z,21.58
2017-11-01T07:42:04.487Z,21.56
2017-11-01T07:43:04.487Z,21.62
2017-11-01T07:44:04.483Z,21.53
2017-11-01T07:45:04.489Z,21.55
2017-11-01T07:46:04.543Z,21.58
2017-11-01T07:47:04.487Z,21.53
2017-11-01T07:48:04.485Z,21.59
2017-11-01T07:49:04.480Z,21.69
2017-11-01T07:50:04.484Z,21.69
2017-11-01T07:51:04.486Z,21.59
2017-11-01T07:52:04.485Z,21.71
2017-11-01T07:53:04.483Z,21.67
2017-11-01T07:54:04.483Z,21.71
2017-11-01T07:55:04.485Z,21.74
2017-11-01T07:56:04.485Z,21.63
2017-11-01T07:57:04.483Z,21.66
2017-11-01T07:58:04.484Z,21.67
2017-11-01T07:59:04.481Z,21.71
2017-11-01T08:00:04.484Z,21.73
2017-11-01T08:01:04.481Z,21.77
2017-11-01T08:02:04.484Z,21.74
2017-11-01T08:03:04.482Z,21.80
2017-11-01T08:04:04.480Z,21.78
2017-11-01T08:05:04.479Z,21.80
2017-11-01T08:06:04.482Z,21.78
2017-11-01T08:07:04.482Z,21.80
2017-11-01T08:08:04.486Z,21.78
2017-11-01T08:09:04.482Z,21.82
2017-11-01T08:10:04.482Z,21.81
2017-11-01T08:11:04.480Z,21.81
2017-11-01T08:12:04.480Z,21.85
2017-11-01T08:13:04.481Z,21.88
2017-11-01T08:14:04.478Z,21.88
2017-11-01T08:15:04.481Z,21.84
2017-11-01T08:16:04.478Z,21.88
2017-11-01T08:17:04.479Z,21.88
2017-11-01T08:18:04.480Z,21.80
2017-11-01T08:19:04.476Z,21.88
2017-11-01T08:20:04.480Z,21.90
2017-11-01T08:21:04.476Z,21.84
2017-11-01T08:22:04.480Z,21.88
2017-11-01T08:23:04.478Z,21.84
2017-11-01T08:24:04.490Z,21.93
2017-11-01T08:25:04.484Z,21.84
2017-11-01T08:26:04.480Z,21.90
2017-11-01T08:27:04.479Z,21.93
2017-11-01T08:28:04.480Z,21.85
2017-11-01T08:29:04.479Z,21.88
2017-11-01T08:30:04.480Z,21.93
2017-11-01T08:31:04.477Z,21.85
2017-11-01T08:32:04.476Z,21.90
2017-11-01T08:33:04.478Z,21.90
2017-11-01T08:34:04.476Z,21.96
2017-11-01T08:35:04.476Z,21.96
2017-11-01T08:36:04.476Z,21.94
2017-11-01T08:37:04.476Z,21.88
2017-11-01T08:38:04.477Z,21.91
2017-11-01T08:39:04.478Z,21.94
2017-11-01T08:40:04.479Z,21.94
2017-11-01T08:41:04.479Z,21.93
2017-11-01T08:42:04.492Z,21.94
2017-11-01T08:43:04.477Z,21.94
2017-11-01T08:44:04.483Z,21.96
2017-11-01T08:45:04.477Z,21.90
2017-11-01T08:46:04.475Z,21.91
2017-11-01T08:47:04.474Z,21.94
2017-11-01T08:48:04.475Z,21.88
2017-11-01T08:49:04.474Z,21.90
2017-11-01T08:50:04.474Z,21.84
2017-11-01T08:51:04.473Z,21.91
2017-11-01T08:52:04.477Z,21.90
2017-11-01T08:53:04.479Z,21.82
2017-11-01T08:54:04.476Z,21.88
2017-11-01T08:55:04.474Z,21.88
2017-11-01T08:56:04.475Z,21.85
2017-11-01T08:57:04.474Z,21.85
2017-11-01T08:58:04.473Z,21.90
2017-11-01T08:59:04.473Z,21.84
2017-11-01T09:00:04.491Z,21.82
2017-11-01T09:01:04.471Z,21.81
2017-11-01T09:02:04.473Z,21.80
2017-11-01T09:03:04.476Z,21.74
2017-11-01T09:04:04.475Z,21.78
2017-11-01T09:05:04.477Z,21.77
2017-11-01T09:06:04.477Z,21.75
2017-11-01T09:07:04.476Z,21.80
2017-11-01T09:08:04.475Z,21.78
2017-11-01T09:09:04.479Z,21.77
2017-11-01T09:10:04.476Z,21.78
2017-11-01T09:11:04.472Z,21.77
2017-11-01T09:12:04.470Z,21.75
2017-11-01T09:13:04.473Z,21.74
2017-11-01T09:14:04.472Z,21.77
2017-11-01T09:15:04.471Z,21.77
2017-11-01T09:16:04.474Z,21.71
2017-11-01T09:17:04.470Z,21.78
2017-11-01T09:18:04.479Z,21.73
2017-11-01T09:19:04.474Z,21.69
2017-11-01T09:20:04.495Z,21.77
2017-11-01T09:21:04.472Z,21.78
2017-11-01T09:22:04.471Z,21.77
2017-11-01T09:23:04.481Z,21.77
2017-11-01T09:24:04.471Z,21.75
2017-11-01T09:25:04.471Z,21.74
2017-11-01T09:26:04.473Z,21.78
2017-11-01T09:27:04.470Z,21.66
2017-11-01T09:28:04.468Z,21.78
2017-11-01T09:29:04.470Z,21.73
2017-11-01T09:30:04.468Z,21.73
2017-11-01T09:31:04.466Z,21.78
2017-11-01T09:32:04.466Z,21.81
2017-11-01T09:33:04.467Z,21.77
2017-11-01T09:34:04.467Z,21.77
2017-11-01T09:35:04.470Z,21.78
2017-11-01T09:36:04.468Z,21.78
2017-11-01T09:37:04.467Z,21.81
2017-11-01T09:38:04.473Z,21.75
2017-11-01T09:39:04.465Z,21.80
2017-11-01T09:40:04.470Z,21.78
2017-11-01T09:41:04.461Z,21.90
2017-11-01T09:42:04.468Z,21.90
2017-11-01T09:43:04.463Z,21.94
2017-11-01T09:44:04.464Z,21.90
2017-11-01T09:45:04.464Z,21.96
2017-11-01T09:46:04.464Z,21.91
2017-11-01T09:47:04.462Z,21.91
2017-11-01T09:48:04.482Z,21.90
2017-11-01T09:49:04.464Z,21.94
2017-11-01T09:50:04.459Z,21.94
2017-11-01T09:51:04.476Z,21.96
2017-11-01T09:52:04.465Z,21.96
2017-11-01T09:53:04.464Z,22.06
2017-11-01T09:54:04.463Z,22.07
2017-11-01T09:55:04.463Z,22.06
2017-11-01T09:56:04.461Z,22.09
2017-11-01T09:57:04.461Z,22.06
2017-11-01T09:58:04.459Z,22.07
2017-11-01T09:59:04.463Z,22.03
2017-11-01T10:00:04.463Z,22.04
2017-11-01T10:01:04.462Z,22.09
2017-11-01T10:02:04.467Z,22.15
2017-11-01T10:03:04.461Z,22.16
2017-11-01T10:04:04.463Z,22.19
2017-11-01T10:05:04.460Z,22.16
2017-11-01T10:06:04.464Z,22.22
2017-11-01T10:07:04.459Z,22.18
2017-11-01T10:08:04.455Z,22.19
2017-11-01T10:09:04.458Z,22.21
2017-11-01T10:10:04.556Z,22.25
2017-11-01T10:11:04.495Z,22.22
2017-11-01T10:12:04.459Z,22.18
2017-11-01T10:13:04.454Z,22.25
2017-11-01T10:14:04.457Z,22.27
2017-11-01T10:15:04.462Z,22.33
2017-11-01T10:16:04.459Z,22.27
2017-11-01T10:17:04.459Z,22.30
2017-11-01T10:18:04.461Z,22.27
2017-11-01T10:19:04.463Z,22.28
2017-11-01T10:20:04.485Z,22.27
2017-11-01T10:21:04.563Z,22.21
2017-11-01T10:22:04.461Z,22.27
2017-11-01T10:23:04.454Z,22.33
2017-11-01T10:24:04.457Z,22.23
2017-11-01T10:25:04.456Z,22.27
2017-11-01T10:26:04.455Z,22.33
2017-11-01T10:27:04.455Z,22.33
2017-11-01T10:28:04.470Z,22.31
2017-11-01T10:29:04.456Z,22.40
2017-11-01T10:30:04.454Z,22.38
2017-11-01T10:31:04.456Z,22.37
2017-11-01T10:32:04.464Z,22.46
2017-11-01T10:33:04.459Z,22.37
2017-11-01T10:34:04.460Z,22.40
2017-11-01T10:35:04.457Z,22.43
2017-11-01T10:36:04.466Z,22.43
2017-11-01T10:37:04.484Z,22.49
2017-11-01T10:38:04.463Z,22.48
2017-11-01T10:39:04.474Z,22.53
2017-11-01T10:40:04.455Z,22.52
2017-11-01T10:41:04.455Z,22.53
2017-11-01T10:42:04.455Z,22.52
2017-11-01T10:43:04.457Z,22.56
2017-11-01T10:44:04.456Z,22.55
2017-11-01T10:45:04.456Z,22.51
2017-11-01T10:46:04.453Z,22.51
2017-11-01T10:47:04.458Z,22.53
2017-11-01T10:48:04.459Z,22.58
2017-11-01T10:49:04.467Z,22.58
2017-11-01T10:50:04.460Z,22.66
2017-11-01T10:51:04.469Z,22.64
2017-11-01T10:52:04.463Z,22.66
2017-11-01T10:53:04.460Z,22.61
2017-11-01T10:54:04.461Z,22.68
2017-11-01T10:55:04.458Z,22.73
2017-11-01T10:56:04.457Z,22.67
2017-11-01T10:57:04.457Z,22.71
2017-11-01T10:58:04.462Z,22.78
2017-11-01T10:59:04.461Z,22.66
2017-11-01T11:00:04.471Z,22.68
2017-11-01T11:01:04.463Z,22.73
2017-11-01T11:02:04.467Z,22.76
2017-11-01T11:03:04.466Z,22.64
2017-11-01T11:04:04.461Z,22.71
2017-11-01T11:05:04.463Z,22.76
2017-11-01T11:06:04.463Z,22.74
2017-11-01T11:07:04.461Z,22.77
2017-11-01T11:08:04.462Z,22.73
2017-11-01T11:09:04.463Z,22.77
2017-11-01T11:10:04.463Z,22.77
2017-11-01T11:11:04.465Z,22.86
2017-11-01T11:12:04.465Z,22.86
2017-11-01T11:13:04.476Z,22.89
2017-11-01T11:14:04.468Z,22.85
2017-11-01T11:15:04.481Z,22.80
2017-11-01T11:16:04.466Z,22.77
2017-11-01T11:17:04.470Z,22.86
2017-11-01T11:18:04.468Z,22.78
2017-11-01T11:19:04.464Z,22.86
2017-11-01T11:20:04.471Z,22.89
2017-11-01T11:21:04.463Z,22.91
2017-11-01T11:22:04.460Z,22.89
2017-11-01T11:23:04.465Z,22.91
2017-11-01T11:24:04.464Z,22.98
2017-11-01T11:25:04.469Z,22.98
2017-11-01T11:26:04.469Z,23.03
2017-11-01T11:27:04.470Z,22.99
2017-11-01T11:28:04.474Z,23.01
2017-11-01T11:29:04.469Z,23.06
2017-11-01T11:30:04.478Z,23.13
2017-11-01T11:31:04.471Z,23.07
2017-11-01T11:32:04.470Z,23.11
2017-11-01T11:33:04.470Z,23.08
2017-11-01T11:34:04.474Z,23.10
2017-11-01T11:35:04.472Z,23.13
2017-11-01T11:36:04.472Z,23.13
2017-11-01T11:37:04.471Z,23.11
2017-11-01T11:38:04.472Z,23.22
2017-11-01T11:39:04.474Z,23.18
2017-11-01T11:40:04.473Z,23.22
2017-11-01T11:41:04.474Z,23.31
2017-11-01T11:42:04.473Z,23.36
2017-11-01T11:43:04.476Z,23.37
2017-11-01T11:44:04.479Z,23.37
2017-11-01T11:45:04.482Z,23.33
2017-11-01T11:46:04.477Z,23.37
2017-11-01T11:47:04.478Z,23.45
2017-11-01T11:48:04.478Z,23.46
2017-11-01T11:49:04.481Z,23.52
2017-11-01T11:50:04.484Z,23.45
2017-11-01T11:51:04.474Z,23.48
2017-11-01T11:52:04.476Z,23.49
2017-11-01T11:53:04.484Z,23.46
2017-11-01T11:54:05.324Z,23.45
2017-11-01T11:55:04.484Z,23.52
2017-11-01T11:56:04.481Z,23.56
2017-11-01T11:57:04.484Z,23.45
2017-11-01T11:58:04.485Z,23.46
2017-11-01T11:59:04.490Z,23.52
2017-11-01T12:00:04.491Z,23.44
2017-11-01T12:01:04.496Z,23.49
2017-11-01T12:02:04.498Z,23.46
2017-11-01T12:03:04.498Z,23.52
2017-11-01T12:04:04.503Z,23.51
2017-11-01T12:05:04.505Z,23.61
2017-11-01T12:06:04.513Z,23.52
2017-11-01T12:07:04.516Z,23.55
2017-11-01T12:08:05.390Z,23.59
2017-11-01T12:09:04.522Z,23.61
2017-11-01T12:10:04.526Z,23.66
2017-11-01T12:11:04.532Z,23.74
2017-11-01T12:12:04.536Z,23.69
2017-11-01T12:13:05.134Z,23.73
2017-11-01T12:14:04.544Z,23.71
2017-11-01T12:15:04.545Z,23.52
2017-11-01T12:16:04.550Z,23.54
2017-11-01T12:17:04.555Z,23.59
2017-11-01T12:18:05.196Z,23.61
2017-11-01T12:19:04.563Z,23.71
2017-11-01T12:20:04.571Z,23.82
2017-11-01T12:21:04.598Z,23.86
2017-11-01T12:22:04.579Z,23.84
2017-11-01T12:23:04.579Z,23.79
2017-11-01T12:24:04.588Z,23.82
2017-11-01T12:25:04.592Z,23.76
2017-11-01T12:26:04.595Z,23.85
2017-11-01T12:27:04.600Z,23.88
2017-11-01T12:28:04.633Z,23.78
2017-11-01T12:29:04.635Z,23.86
2017-11-01T12:30:04.611Z,23.94
2017-11-01T12:31:04.614Z,23.92
2017-11-01T12:32:04.627Z,23.91
2017-11-01T12:33:04.614Z,24.00
2017-11-01T12:34:04.629Z,24.07
2017-11-01T12:35:04.627Z,24.01
2017-11-01T12:36:04.634Z,24.15
2017-11-01T12:37:04.638Z,24.15
2017-11-01T12:38:04.642Z,24.18
2017-11-01T12:39:04.647Z,24.15
2017-11-01T12:40:04.653Z,24.25
2017-11-01T12:41:04.657Z,24.25
2017-11-01T12:42:04.658Z,24.23
2017-11-01T12:43:04.661Z,24.25
2017-11-01T12:44:04.664Z,24.36
2017-11-01T12:45:04.670Z,24.28
2017-11-01T12:46:04.675Z,24.40
2017-11-01T12:47:04.678Z,24.37
2017-11-01T12:48:04.680Z,24.47
2017-11-01T12:49:04.686Z,24.36
2017-11-01T12:50:04.687Z,24.51
2017-11-01T12:51:04.694Z,24.52
2017-11-01T12:52:04.698Z,24.48